ヌーク の空港の天気 - METARとTAF

ヌーク空港 ( BGGH / GOH ) - グリーンランド ヌーク
飛行場実況気象(Metar)
観測時間05/27 23:50 WGST (05/28 01:50 UTC)
風向・風速北北西 5m/s
視程-
天気現象
全天の8割程度の雲 雲底高度 400m
気温0℃
湿度80%
気圧1008hPa
METARBGGH 280150Z AUTO 34010KT 9999NDV BKN013/// M00/M03 Q1008
過去の天気等 Google飛行場航空写真 Wunderground天気予報

過去48時間のMETAR

飛行場予報(TAF)
発表時間: 5/27 19:05 WGST (5/27 21:05 UTC)
予報対象時間: 27日19時 WGST ~ 27日20時 WGST
風向・風速北北西 5m/s
視程10km以上
少しの雲 雲底高度 240m
全天の4割程度の雲 雲底高度 460m
全天の8割程度の雲 雲底高度 1520m
27日19時 WGST ~ 27日20時 WGST に一時的に
天気現象弱いしゅう雨雪
全天の8割程度の雲 雲底高度 240m
TAF AMD BGGH 272105Z 2721/2722 33010KT 9999 FEW008 SCT015 BKN050
TEMPO 2721/2722 -SHRASN BKN008